Ardrishaig, United Kingdom
Current Conditions -  °F | °C
As of 4:20 PM on Tuesday 21 Oct 2014 (Local Time) from EGPI Reporting Station
Rain Showers Rain Showers  
Wind Chill: 37°   Ceiling: 4100
Heat Index: 46°   Visibility: 4mi
Dew Point: 39°   Wind: 32mph
Humidity: 76%   Direction: 310°NW
Pressure: 29.85"   Gusts: NA
Location:  56.02°N, 5.45°W
Report Text: EGPI 211520Z AUTO 31028KT 7000 SHRA FEW022/// BKN041/// 08/04 Q1011
Loading
Personal Weather Stations






























Interactive Weather Map
Tropical Storm Tracking
New forecast layout! Learn more

10-Day Weather Forecast

Advertisements
Track Severe Weather on mobile